Startpagina
METAR-TAF:

METAR-TAF

Vliegvelden :

Ndjamena, Tsjaad

breedte: 12-08N, lengte: 015-02E, hoogte: 295 m

Actueel weer

Dit bericht is 39 minuten geleden gemaakt, om 01:00 UTC
Wind 7 kt uit het noorden
Temperatuur 18°C
Vochtigheid 15%
Druk 1013 hPa
Zicht 10 km of meer
geen wolken onder 1500 m en geen cumulonimbus

METAR: FTTJ 290100Z 01007KT CAVOK 18/M09 Q1013 NOSIG

Tijdstip: 02:39 (01:39 UTC)

Verwachting

Dit bericht is 2 uur en het 39 minuten geleden gemaakt, om 23:00 UTC
Verwachting geldig van 29 om 00 UTC tot 30 om 06 UTC
Wind 6 kt uit het noorden
Zicht: 8000 m
Tijdelijke
van 29 om 02 UTC tot 29 om 07 UTC
Zicht: 5000 m
Heiigheid
Tijdelijke
van 29 om 07 UTC tot 29 om 14 UTC
Wind 12 kt uit het noordnoordoosten

TAF: FTTJ 282300Z 2900/3006 36006KT 8000 NSC TEMPO 2902/2907 5000 HZ TEMPO 2907/2914 02012KT

Waarnemingen en weersverwachtingen van meer dan 4000 vliegvelden (METAR en TAF).

De beschikbare stations zijn de gele en rode punten op de kaart.

Ga met uw muis naar het station om de naam te zien.

Klik dan om waarnemingen en weersverwachtingen te zien.

kaart wijzigen: klik op de groene knoppen met een zwart kruis om in te zoomen, op de groene knop met een streepje om uit te zoomen of op de groene pijlen voor aangrenzende kaarten.


METAR-TAF: